Time;durP1;ratioP1;P1;durP2;ratioP2;P2;SDS_P1;SDS_P2;PMS_P1;PMS_P2;Temp;Humidity;BMP_temperature;BMP_pressure;BME280_temperature;BME280_humidity;BME280_pressure;Samples;Min_cycle;Max_cycle;Signal;HPM_P1;HPM_P2
2023/09/12 00:00:35;;;;;;;13.57;6.97;;;23.40;57.40;;;24.83;45.56;97278.28;5019050;28;20520;-69
2023/09/12 00:03:03;;;;;;;8.90;6.47;;;23.30;57.80;;;24.83;45.47;97272.84;5021896;28;20042;-69
2023/09/12 00:05:31;;;;;;;10.50;7.03;;;23.20;58.00;;;24.82;45.54;97268.50;5014678;28;20045;-69
2023/09/12 00:07:59;;;;;;;9.90;6.95;;;23.20;58.00;;;24.80;45.40;97264.41;5018878;28;20501;-69
2023/09/12 00:10:26;;;;;;;10.23;7.38;;;23.10;58.30;;;24.75;45.18;97263.25;5018809;28;20042;-69
2023/09/12 00:12:54;;;;;;;11.73;6.47;;;23.00;58.30;;;24.71;45.39;97267.59;5020417;28;20054;-69
2023/09/12 00:15:22;;;;;;;10.93;7.07;;;23.00;58.70;;;24.62;45.88;97263.72;5022124;28;20523;-69
2023/09/12 00:17:49;;;;;;;12.43;7.32;;;22.80;59.50;;;24.55;46.06;97257.69;5018746;28;20053;-69
2023/09/12 00:20:17;;;;;;;10.60;6.40;;;22.70;59.70;;;24.49;46.05;97259.50;5018614;28;20050;-69
2023/09/12 00:22:46;;;;;;;11.50;6.78;;;22.70;59.90;;;24.47;46.23;97266.31;5019510;28;20478;-69
2023/09/12 00:25:14;;;;;;;12.02;7.07;;;22.60;60.10;;;24.41;46.40;97262.72;5023892;28;20045;-69
2023/09/12 00:27:41;;;;;;;8.93;6.00;;;22.60;60.20;;;24.36;46.19;97257.22;5017516;28;20057;-68
2023/09/12 00:30:10;;;;;;;10.57;7.07;;;22.60;60.40;;;24.32;46.22;97259.63;5036568;28;20046;-68
2023/09/12 00:32:37;;;;;;;8.88;6.47;;;22.50;60.60;;;24.29;46.83;97254.72;5036414;28;20053;-66
2023/09/12 00:35:06;;;;;;;12.30;7.22;;;22.50;60.50;;;24.29;46.29;97256.59;5024120;28;20049;-69
2023/09/12 00:37:33;;;;;;;16.42;8.85;;;22.50;60.50;;;24.26;46.49;97247.06;5025498;28;20496;-69
2023/09/12 00:40:01;;;;;;;12.82;6.90;;;22.50;60.30;;;24.24;46.52;97249.25;5021492;28;20053;-68
2023/09/12 00:42:29;;;;;;;7.28;6.35;;;22.50;60.90;;;24.21;46.63;97254.38;5019929;28;20435;-68
2023/09/12 00:44:57;;;;;;;11.80;6.82;;;22.40;60.90;;;24.17;47.05;97254.91;5018686;28;20041;-69
2023/09/12 00:47:27;;;;;;;12.38;7.15;;;22.40;61.40;;;24.14;46.84;97255.41;5016354;28;20074;-67
2023/09/12 00:49:56;;;;;;;10.32;7.07;;;22.40;61.40;;;24.10;46.92;97254.28;5018702;28;20370;-68
2023/09/12 00:52:27;;;;;;;8.13;6.97;;;22.30;61.80;;;24.08;46.94;97251.00;5021244;28;20420;-69
2023/09/12 00:54:55;;;;;;;11.50;6.82;;;22.30;61.70;;;24.05;47.07;97254.22;5019256;27;20048;-68
2023/09/12 00:57:24;;;;;;;7.93;6.10;;;22.30;61.70;;;24.03;47.26;97247.41;5034670;28;20053;-68
2023/09/12 00:59:53;;;;;;;8.68;6.75;;;22.30;61.70;;;24.01;47.18;97244.13;5019437;28;20038;-66
2023/09/12 01:02:22;;;;;;;11.80;6.97;;;22.20;61.80;;;23.96;47.26;97245.72;5019712;28;20050;-68
2023/09/12 01:04:50;;;;;;;10.88;7.35;;;22.20;61.80;;;23.92;47.38;97238.31;5034127;28;20049;-70
2023/09/12 01:07:18;;;;;;;9.88;7.63;;;22.10;62.30;;;23.89;47.41;97249.72;5022350;28;20049;-70
2023/09/12 01:09:46;;;;;;;11.23;7.68;;;22.00;62.70;;;23.83;47.43;97240.69;5019818;28;20038;-69
2023/09/12 01:12:14;;;;;;;9.32;7.93;;;22.00;63.00;;;23.81;47.78;97236.56;5020038;28;20045;-70
2023/09/12 01:14:42;;;;;;;10.98;8.30;;;22.00;63.20;;;23.77;47.64;97238.97;5003439;28;20467;-70
2023/09/12 01:17:10;;;;;;;13.15;9.40;;;22.00;63.10;;;23.75;47.67;97238.41;5020908;28;20492;-70
2023/09/12 01:19:38;;;;;;;10.02;8.52;;;21.90;63.20;;;23.70;48.06;97236.44;5003236;28;20513;-70
2023/09/12 01:22:40;;;;;;;9.57;8.05;;;21.80;63.40;;;23.63;48.14;97226.84;5032560;28;20385;-71
2023/09/12 01:25:45;;;;;;;10.30;7.33;;;21.80;64.50;;;23.61;48.10;97234.44;5020651;28;20041;-71
2023/09/12 01:28:17;;;;;;;12.18;7.93;;;21.70;64.30;;;23.59;48.42;97238.25;5016240;28;20285;-70
2023/09/12 01:30:48;;;;;;;11.02;7.82;;;21.80;64.30;;;23.57;48.46;97240.41;5032419;28;20049;-71
2023/09/12 01:33:16;;;;;;;13.52;8.23;;;21.80;64.70;;;23.53;48.49;97244.69;5018853;28;20045;-70
2023/09/12 01:35:46;;;;;;;12.15;8.23;;;21.70;64.60;;;23.51;48.70;97244.13;5019805;28;20049;-70
2023/09/12 01:38:14;;;;;;;12.75;7.95;;;21.70;65.10;;;23.48;49.06;97241.13;5020510;28;20052;-69
2023/09/12 01:40:51;;;;;;;14.93;8.40;;;21.60;65.10;;;23.46;49.08;97237.81;5002373;28;20049;-69
2023/09/12 01:43:22;;;;;;;9.20;7.63;;;21.60;65.50;;;23.47;48.86;97234.03;5001131;28;20042;-69
2023/09/12 01:45:56;;;;;;;14.18;7.70;;;21.70;64.90;;;23.45;48.54;97236.19;5089444;28;20042;-67
2023/09/12 01:48:33;;;;;;;9.65;7.40;;;21.60;64.70;;;23.42;48.87;97234.78;5000169;28;20048;-67
2023/09/12 01:51:03;;;;;;;10.25;6.55;;;21.70;64.80;;;23.38;49.07;97236.38;5003655;28;20049;-67
2023/09/12 01:53:33;;;;;;;12.43;8.13;;;21.60;65.10;;;23.35;49.31;97239.59;5020145;28;20057;-66
2023/09/12 01:56:00;;;;;;;10.60;8.85;;;21.50;65.50;;;23.33;49.02;97237.13;5017867;28;20421;-67
2023/09/12 01:58:28;;;;;;;9.70;7.90;;;21.50;65.40;;;23.31;48.98;97235.75;5032203;28;20045;-66
2023/09/12 02:00:57;;;;;;;12.43;8.10;;;21.50;65.50;;;23.30;49.18;97236.81;5001265;28;20386;-67
2023/09/12 02:03:24;;;;;;;11.25;8.50;;;21.60;65.20;;;23.31;49.28;97239.28;5019637;28;20514;-67
2023/09/12 02:05:52;;;;;;;12.35;8.07;;;21.60;65.20;;;23.31;49.37;97244.69;5020147;28;20037;-67
2023/09/12 02:08:20;;;;;;;13.88;8.93;;;21.60;65.10;;;23.31;49.30;97233.03;5022024;28;20057;-67
2023/09/12 02:10:47;;;;;;;13.27;7.65;;;21.60;65.30;;;23.32;49.31;97237.38;5018880;28;20394;-67
2023/09/12 02:13:15;;;;;;;11.32;7.20;;;21.60;65.50;;;23.30;49.83;97234.09;5019911;28;20056;-67
2023/09/12 02:15:43;;;;;;;11.88;6.95;;;21.60;66.10;;;23.27;49.70;97230.00;5020164;28;20529;-67
2023/09/12 02:18:10;;;;;;;9.82;7.82;;;21.50;66.30;;;23.23;49.69;97234.28;5018926;28;20051;-67
2023/09/12 02:20:41;;;;;;;12.27;8.77;;;21.50;66.40;;;23.21;49.70;97228.28;5005090;28;20050;-67
2023/09/12 02:23:09;;;;;;;9.93;8.00;;;21.40;66.50;;;23.17;49.80;97227.16;5024089;28;20049;-67
2023/09/12 02:25:37;;;;;;;8.38;7.18;;;21.30;66.60;;;23.13;49.90;97231.44;5027291;28;20404;-67
2023/09/12 02:28:05;;;;;;;11.25;8.18;;;21.30;66.90;;;23.08;49.91;97228.66;5020117;28;20038;-67
2023/09/12 02:30:33;;;;;;;16.30;9.20;;;21.30;67.00;;;23.05;50.09;97232.72;5019154;28;20052;-68
2023/09/12 02:33:00;;;;;;;13.63;8.65;;;21.20;66.90;;;22.99;49.99;97230.94;5022441;28;20061;-67
2023/09/12 02:35:28;;;;;;;11.18;7.85;;;21.20;67.30;;;22.97;50.14;97227.66;5053213;28;20042;-67
2023/09/12 02:37:56;;;;;;;10.68;8.20;;;21.20;67.30;;;22.95;50.26;97222.50;5031397;28;20412;-67
2023/09/12 02:40:25;;;;;;;10.88;8.75;;;21.10;67.20;;;22.93;50.07;97224.63;5032197;28;20053;-67
2023/09/12 02:42:52;;;;;;;11.93;7.47;;;21.10;67.50;;;22.88;50.40;97218.34;5012123;28;20509;-67
2023/09/12 02:45:20;;;;;;;10.57;8.40;;;21.10;67.70;;;22.82;50.80;97220.16;5026942;28;20056;-67
2023/09/12 02:47:48;;;;;;;10.40;7.90;;;21.00;68.40;;;22.77;50.52;97222.78;5002219;28;20042;-67
2023/09/12 02:50:15;;;;;;;12.48;9.65;;;20.90;68.30;;;22.74;50.84;97217.84;5060615;28;20038;-67
2023/09/12 02:52:43;;;;;;;10.85;9.23;;;20.90;68.50;;;22.72;50.77;97215.41;5018484;28;20065;-67
2023/09/12 02:55:11;;;;;;;15.15;9.80;;;20.90;68.50;;;22.70;51.07;97216.72;5009340;28;20049;-67
2023/09/12 02:57:38;;;;;;;12.57;8.20;;;20.90;68.60;;;22.68;51.10;97210.72;5019863;28;20048;-67
2023/09/12 03:00:08;;;;;;;13.32;9.05;;;20.90;69.30;;;22.68;51.21;97216.13;5015647;28;20054;-67
2023/09/12 03:02:36;;;;;;;11.52;8.57;;;20.90;69.20;;;22.68;51.35;97208.84;5013767;28;20046;-67
2023/09/12 03:05:05;;;;;;;10.63;8.57;;;21.00;69.10;;;22.69;51.41;97213.19;5017567;28;20111;-67
2023/09/12 03:07:32;;;;;;;13.32;8.40;;;21.00;68.80;;;22.70;51.47;97211.28;5019805;28;20060;-67
2023/09/12 03:10:00;;;;;;;11.25;9.23;;;21.00;68.90;;;22.69;51.62;97210.47;5017885;28;20041;-67
2023/09/12 03:12:28;;;;;;;10.02;7.63;;;21.00;68.90;;;22.71;51.47;97210.22;5016244;28;20685;-67
2023/09/12 03:14:56;;;;;;;11.20;8.90;;;21.10;68.70;;;22.65;51.54;97216.66;5016027;28;20411;-67
2023/09/12 03:17:24;;;;;;;12.05;8.25;;;21.10;68.50;;;22.66;51.77;97215.56;5003102;28;20432;-68
2023/09/12 03:19:52;;;;;;;12.82;9.00;;;21.10;68.60;;;22.66;51.69;97218.28;5019558;28;20424;-68
2023/09/12 03:22:19;;;;;;;11.15;7.70;;;21.00;69.10;;;22.66;51.63;97221.00;5001891;28;20042;-66
2023/09/12 03:24:47;;;;;;;9.50;7.90;;;21.00;69.20;;;22.63;51.71;97211.47;4994896;28;20038;-67
2023/09/12 03:27:15;;;;;;;10.32;8.65;;;20.90;69.70;;;22.62;51.49;97212.53;5051101;28;20049;-67
2023/09/12 03:29:47;;;;;;;13.05;9.05;;;20.90;69.80;;;22.58;51.92;97214.09;5000088;28;20038;-67
2023/09/12 03:32:15;;;;;;;12.18;8.60;;;20.80;70.50;;;22.53;51.81;97206.72;5012825;28;20041;-67
2023/09/12 03:34:43;;;;;;;10.75;8.35;;;20.70;70.70;;;22.54;51.79;97205.63;5038782;27;20051;-67
2023/09/12 03:37:10;;;;;;;11.27;7.72;;;20.80;70.40;;;22.56;51.86;97197.25;5018938;28;20049;-67
2023/09/12 03:39:38;;;;;;;10.30;8.65;;;20.80;70.00;;;22.59;51.96;97191.34;5026838;28;20524;-67
2023/09/12 03:42:06;;;;;;;17.63;9.02;;;21.00;69.60;;;22.60;51.88;97201.94;5019994;28;20053;-67
2023/09/12 03:44:34;;;;;;;12.57;8.90;;;20.90;69.60;;;22.59;52.25;97215.75;5030377;27;20049;-67
2023/09/12 03:47:02;;;;;;;12.23;9.30;;;20.90;71.20;;;22.54;52.06;97208.34;5055538;28;20050;-67
2023/09/12 03:49:30;;;;;;;9.50;8.02;;;20.80;70.70;;;22.57;52.14;97196.19;5004448;28;20500;-67
2023/09/12 03:51:57;;;;;;;14.80;8.18;;;20.80;70.30;;;22.61;51.98;97194.63;5029060;28;20049;-67
2023/09/12 03:54:26;;;;;;;9.13;8.13;;;20.90;70.00;;;22.65;51.87;97198.47;5033092;28;20057;-67
2023/09/12 03:56:54;;;;;;;13.57;9.00;;;21.00;69.50;;;22.68;52.05;97203.41;5031276;28;20049;-67
2023/09/12 03:59:21;;;;;;;11.35;9.10;;;21.10;69.50;;;22.70;52.02;97203.97;5025530;28;20050;-67
2023/09/12 04:01:49;;;;;;;11.18;8.13;;;21.10;69.50;;;22.74;51.67;97196.97;5039152;28;20501;-67
2023/09/12 04:04:17;;;;;;;14.50;10.38;;;21.10;69.00;;;22.77;51.98;97209.22;5033301;28;20907;-68
2023/09/12 04:06:45;;;;;;;11.95;8.52;;;21.30;68.80;;;22.79;51.87;97205.16;5017869;28;20049;-67
2023/09/12 04:09:12;;;;;;;11.82;8.93;;;21.30;68.70;;;22.82;51.67;97206.59;5018447;28;20042;-67
2023/09/12 04:11:40;;;;;;;12.52;9.45;;;21.20;68.70;;;22.83;52.00;97199.25;5017828;28;20065;-67
2023/09/12 04:14:14;;;;;;;17.92;8.98;;;21.20;68.90;;;22.83;51.82;97200.06;5026876;28;20072;-67
2023/09/12 04:16:42;;;;;;;13.25;8.90;;;21.30;68.60;;;22.80;51.84;97198.69;5022239;27;20054;-67
2023/09/12 04:19:10;;;;;;;11.05;7.90;;;21.40;68.10;;;22.84;51.59;97195.44;5034902;28;20523;-67
2023/09/12 04:21:39;;;;;;;16.25;8.70;;;21.40;68.00;;;22.87;51.87;97194.97;5008945;28;20041;-67
2023/09/12 04:24:08;;;;;;;13.05;8.55;;;21.50;68.00;;;22.84;51.97;97198.16;5005106;28;20417;-67
2023/09/12 04:26:35;;;;;;;16.02;9.05;;;21.50;67.90;;;22.85;51.96;97195.22;5005232;28;20049;-67
2023/09/12 04:29:03;;;;;;;12.88;8.82;;;21.50;67.80;;;22.88;51.93;97197.44;5019755;28;20048;-67
2023/09/12 04:31:31;;;;;;;12.90;8.43;;;21.50;68.10;;;22.90;51.84;97200.72;5005741;28;20046;-67
2023/09/12 04:33:58;;;;;;;11.68;9.18;;;21.50;68.10;;;22.89;51.96;97195.53;5019940;28;20532;-68
2023/09/12 04:36:26;;;;;;;13.95;10.43;;;21.50;67.80;;;22.89;51.74;97190.91;5021628;28;20048;-67
2023/09/12 04:38:54;;;;;;;12.80;8.43;;;21.50;68.30;;;22.93;51.59;97202.09;5036134;28;20049;-67
2023/09/12 04:41:21;;;;;;;13.88;9.60;;;21.40;68.40;;;22.93;51.58;97188.53;5018992;28;20056;-67
2023/09/12 04:43:49;;;;;;;10.35;8.30;;;21.30;68.40;;;22.90;51.91;97183.63;5029461;27;20057;-67
2023/09/12 04:46:17;;;;;;;16.17;9.10;;;21.40;68.20;;;22.89;51.80;97187.41;5018215;28;20293;-67
2023/09/12 04:48:44;;;;;;;11.57;8.93;;;21.40;68.20;;;22.86;51.86;97196.88;5026751;28;20042;-67
2023/09/12 04:51:13;;;;;;;13.95;8.93;;;21.40;68.20;;;22.85;51.83;97191.69;5003716;28;20054;-67
2023/09/12 04:53:40;;;;;;;13.20;9.68;;;21.30;68.60;;;22.85;51.68;97197.94;5011577;28;20056;-67
2023/09/12 04:56:09;;;;;;;12.98;9.52;;;21.30;68.70;;;22.85;51.67;97192.50;5026953;28;20635;-67
2023/09/12 04:58:37;;;;;;;12.63;10.35;;;21.20;68.90;;;22.84;51.48;97196.31;5033487;28;20061;-67
2023/09/12 05:01:05;;;;;;;20.15;10.90;;;21.20;69.00;;;22.83;51.79;97205.50;5030245;28;20058;-68
2023/09/12 05:03:33;;;;;;;16.15;10.82;;;21.10;69.40;;;22.83;51.97;97201.97;5053868;28;20413;-67
2023/09/12 05:06:01;;;;;;;12.48;10.55;;;21.10;69.70;;;22.79;51.99;97202.47;5019837;28;20041;-67
2023/09/12 05:08:29;;;;;;;11.57;8.75;;;21.00;70.00;;;22.77;51.83;97201.88;5020014;28;20041;-67
2023/09/12 05:10:57;;;;;;;13.10;9.07;;;21.00;70.10;;;22.77;52.05;97206.50;5027609;28;20500;-67
2023/09/12 05:13:25;;;;;;;14.43;9.98;;;21.00;70.00;;;22.76;52.22;97200.25;5015990;28;20531;-67
2023/09/12 05:15:52;;;;;;;16.50;9.95;;;21.10;70.00;;;22.79;51.88;97207.06;5023343;28;20053;-67
2023/09/12 05:18:20;;;;;;;13.60;9.38;;;21.10;69.70;;;22.81;51.92;97204.94;5026814;28;20049;-67
2023/09/12 05:20:48;;;;;;;11.07;8.70;;;21.10;69.60;;;22.82;51.89;97203.88;5017682;28;20535;-66
2023/09/12 05:23:18;;;;;;;11.30;9.48;;;21.10;69.30;;;22.84;52.08;97198.16;5025483;28;20198;-67
2023/09/12 05:25:46;;;;;;;10.48;9.02;;;21.20;69.40;;;22.87;51.92;97201.22;5035491;28;20053;-67
2023/09/12 05:28:15;;;;;;;12.48;8.85;;;21.20;69.20;;;22.88;51.74;97205.56;5017592;28;20113;-66
2023/09/12 05:30:48;;;;;;;20.13;9.75;;;21.20;69.20;;;22.92;51.90;97211.31;5016880;28;20135;-66
2023/09/12 05:33:16;;;;;;;13.20;9.63;;;21.30;69.50;;;22.92;51.78;97220.28;5018621;28;20049;-67
2023/09/12 05:35:44;;;;;;;11.10;8.90;;;21.20;69.40;;;22.92;51.98;97227.63;5011164;28;20045;-67
2023/09/12 05:38:12;;;;;;;11.95;8.80;;;21.30;69.60;;;22.95;52.19;97225.22;5033092;27;20432;-66
2023/09/12 05:40:40;;;;;;;11.88;10.48;;;21.30;69.60;;;22.96;51.95;97224.13;5016403;28;20071;-66
2023/09/12 05:43:07;;;;;;;12.88;8.90;;;21.30;69.60;;;22.98;51.96;97232.84;5028290;28;20433;-67
2023/09/12 05:45:35;;;;;;;10.45;9.27;;;21.40;69.60;;;22.99;51.84;97231.78;5028842;28;20046;-66
2023/09/12 05:48:04;;;;;;;10.43;9.02;;;21.40;69.20;;;23.01;51.95;97234.22;5019425;28;20049;-66
2023/09/12 05:50:33;;;;;;;10.30;8.63;;;21.40;69.10;;;23.04;51.77;97235.66;4999560;28;20053;-66
2023/09/12 05:53:01;;;;;;;10.27;8.48;;;21.50;69.00;;;23.08;51.86;97236.81;5026571;28;20528;-66
2023/09/12 05:55:31;;;;;;;12.07;8.27;;;21.50;68.80;;;23.10;51.68;97240.91;5023467;28;20519;-66
2023/09/12 05:57:59;;;;;;;12.50;8.63;;;21.50;68.70;;;23.12;51.77;97243.38;5016116;28;20057;-66
2023/09/12 06:00:27;;;;;;;11.25;8.40;;;21.50;68.80;;;23.15;51.76;97240.97;5033573;28;20080;-66
2023/09/12 06:02:55;;;;;;;14.55;8.32;;;21.50;68.60;;;23.21;51.65;97249.19;5002431;28;20063;-66
2023/09/12 06:05:22;;;;;;;13.05;8.80;;;21.70;68.70;;;23.25;51.95;97253.88;5053386;28;20045;-66
2023/09/12 06:07:50;;;;;;;10.05;8.18;;;21.70;68.60;;;23.29;51.72;97252.28;5020203;28;20034;-66
2023/09/12 06:10:18;;;;;;;11.93;9.00;;;21.80;67.90;;;23.33;51.18;97247.16;5017078;28;20045;-66
2023/09/12 06:12:45;;;;;;;9.88;7.80;;;21.80;67.20;;;23.37;51.05;97251.03;5016662;28;20070;-66
2023/09/12 06:15:13;;;;;;;13.23;8.57;;;21.90;67.00;;;23.42;51.29;97252.97;5016891;28;20061;-66
2023/09/12 06:17:41;;;;;;;9.60;7.97;;;21.90;66.90;;;23.47;50.86;97256.56;5019993;28;20413;-66
2023/09/12 06:20:09;;;;;;;11.40;7.90;;;22.00;66.50;;;23.51;50.73;97254.97;5018983;28;20076;-66
2023/09/12 06:22:37;;;;;;;9.68;7.90;;;22.10;66.30;;;23.57;50.93;97264.00;5015325;28;20451;-66
2023/09/12 06:25:06;;;;;;;10.75;8.02;;;22.20;66.10;;;23.61;50.73;97259.72;5016308;28;20501;-66
2023/09/12 06:27:34;;;;;;;12.05;7.53;;;22.20;65.80;;;23.64;50.54;97261.13;5018537;28;20037;-66
2023/09/12 06:30:02;;;;;;;12.05;8.35;;;22.20;65.50;;;23.65;50.49;97257.31;5018787;28;20520;-66
2023/09/12 06:32:30;;;;;;;14.95;8.18;;;22.20;65.40;;;23.67;50.50;97256.00;5017310;28;20072;-67
2023/09/12 06:34:58;;;;;;;12.90;7.70;;;22.20;65.50;;;23.72;50.43;97258.75;5016162;28;20054;-66
2023/09/12 06:37:25;;;;;;;9.30;8.30;;;22.30;65.50;;;23.77;50.21;97266.97;5018340;28;20057;-66
2023/09/12 06:39:53;;;;;;;11.45;7.82;;;22.40;65.20;;;23.81;50.48;97256.44;5019864;28;20048;-66
2023/09/12 06:42:20;;;;;;;13.23;8.77;;;22.40;65.40;;;23.86;50.97;97253.75;5018350;28;20038;-66
2023/09/12 06:44:48;;;;;;;13.18;8.60;;;22.50;66.70;;;23.91;51.76;97266.59;5015932;28;20061;-66
2023/09/12 06:47:16;;;;;;;14.98;10.50;;;22.50;68.30;;;23.93;52.19;97269.88;5015139;28;20042;-66
2023/09/12 06:49:43;;;;;;;16.48;8.85;;;22.50;69.10;;;23.95;52.16;97271.25;5020194;28;20493;-66
2023/09/12 06:52:16;;;;;;;11.77;7.63;;;22.60;68.50;;;23.94;50.65;97271.50;5019167;28;20049;-67
2023/09/12 06:54:44;;;;;;;11.05;7.13;;;22.50;65.70;;;23.95;49.85;97273.16;5015868;28;20046;-66
2023/09/12 06:57:11;;;;;;;9.43;7.47;;;22.50;64.70;;;23.93;49.70;97267.97;5016017;28;20054;-66
2023/09/12 06:59:39;;;;;;;11.07;7.25;;;22.40;64.00;;;23.91;49.37;97269.31;5019775;28;20198;-65
2023/09/12 07:02:07;;;;;;;11.25;7.85;;;22.40;63.90;;;23.89;49.65;97264.13;5019463;28;20496;-65
2023/09/12 07:04:34;;;;;;;10.10;7.85;;;22.40;64.20;;;23.90;49.67;97270.38;5000076;28;20428;-65
2023/09/12 07:07:04;;;;;;;14.98;10.05;;;22.40;64.50;;;23.93;50.72;97280.75;5019672;28;20490;-65
2023/09/12 07:09:32;;;;;;;18.95;12.43;;;22.50;66.50;;;23.96;51.57;97282.94;5021632;28;20046;-66
2023/09/12 07:11:59;;;;;;;21.75;11.02;;;22.50;68.20;;;23.95;51.89;97279.41;5073116;27;20045;-66
2023/09/12 07:14:27;;;;;;;16.50;10.30;;;22.60;68.40;;;23.97;52.20;97288.13;5020582;28;20037;-66
2023/09/12 07:16:54;;;;;;;13.80;10.75;;;22.60;69.10;;;24.00;52.46;97286.81;5019465;28;20046;-65
2023/09/12 07:19:22;;;;;;;14.50;9.82;;;22.60;69.30;;;24.04;52.56;97287.94;5020238;28;20050;-65
2023/09/12 07:21:50;;;;;;;12.13;10.02;;;22.70;69.60;;;24.06;52.61;97283.06;5022711;28;20054;-66
2023/09/12 07:24:17;;;;;;;15.45;11.80;;;22.70;69.80;;;24.08;52.64;97283.63;5020739;28;20054;-65
2023/09/12 07:26:46;;;;;;;14.88;12.52;;;22.70;69.70;;;24.13;52.71;97283.66;5019399;28;20221;-65
2023/09/12 07:29:14;;;;;;;14.75;9.93;;;22.70;69.40;;;24.14;52.46;97285.31;5018952;28;20437;-65
2023/09/12 07:31:42;;;;;;;13.85;9.88;;;22.80;69.30;;;24.17;52.65;97287.53;5027100;28;20049;-65
2023/09/12 07:34:11;;;;;;;11.35;9.25;;;22.90;69.50;;;24.22;52.98;97284.03;5034057;28;20048;-65
2023/09/12 07:36:39;;;;;;;12.68;9.45;;;22.90;70.00;;;24.26;52.73;97287.06;5022118;28;20428;-65
2023/09/12 07:39:07;;;;;;;17.55;11.05;;;22.90;69.80;;;24.29;52.90;97291.97;5022362;28;20405;-65
2023/09/12 07:41:34;;;;;;;19.63;9.98;;;23.00;69.90;;;24.32;52.88;97297.72;5019912;28;20048;-65
2023/09/12 07:44:04;;;;;;;18.48;11.25;;;23.00;69.90;;;24.36;52.85;97295.31;5016807;28;20053;-65
2023/09/12 07:46:32;;;;;;;21.55;10.90;;;23.00;69.90;;;24.37;53.12;97300.50;5020810;28;20046;-65
2023/09/12 07:48:59;;;;;;;17.10;8.88;;;23.10;70.10;;;24.41;52.94;97298.09;5021174;28;20041;-65
2023/09/12 07:51:27;;;;;;;18.63;10.20;;;23.10;69.90;;;24.44;52.99;97292.09;5011669;28;20439;-65
2023/09/12 07:53:55;;;;;;;18.63;11.38;;;23.10;69.80;;;24.47;52.64;97299.75;5017250;28;20038;-65
2023/09/12 07:56:22;;;;;;;20.60;10.52;;;23.20;68.90;;;24.49;52.46;97294.88;5019507;28;20075;-65
2023/09/12 07:58:50;;;;;;;14.43;7.93;;;23.20;68.60;;;24.52;51.96;97308.00;5022276;28;20046;-65
2023/09/12 08:01:17;;;;;;;13.90;8.45;;;23.30;67.50;;;24.54;51.59;97305.00;5021832;28;20519;-65
2023/09/12 08:03:45;;;;;;;11.00;7.40;;;23.30;66.80;;;24.54;51.00;97308.56;5010363;28;20046;-65
2023/09/12 08:06:13;;;;;;;15.95;8.10;;;23.30;65.30;;;24.58;50.76;97306.13;5017611;28;20038;-65
2023/09/12 08:08:41;;;;;;;15.18;9.85;;;23.40;65.20;;;24.59;51.62;97306.97;5021543;28;20044;-65
2023/09/12 08:11:12;;;;;;;13.10;9.48;;;23.40;66.60;;;24.62;51.76;97312.72;5021837;28;20052;-65
2023/09/12 08:13:39;;;;;;;10.45;8.35;;;23.40;66.80;;;24.64;51.66;97316.00;5018642;28;20451;-65
2023/09/12 08:16:08;;;;;;;11.90;8.98;;;23.40;67.00;;;24.68;51.79;97319.00;5018505;28;20060;-65
2023/09/12 08:18:35;;;;;;;11.38;8.48;;;23.40;67.10;;;24.70;51.74;97314.94;5020597;28;20054;-65
2023/09/12 08:21:03;;;;;;;12.27;9.43;;;23.50;67.10;;;24.73;51.53;97308.97;5021640;28;20049;-65
2023/09/12 08:23:31;;;;;;;11.27;8.95;;;23.50;66.90;;;24.75;51.59;97306.81;5019857;28;20049;-65
2023/09/12 08:25:59;;;;;;;11.80;9.57;;;23.50;66.60;;;24.79;51.63;97304.38;5018207;28;20057;-65
2023/09/12 08:28:27;;;;;;;12.63;8.80;;;23.60;66.30;;;24.80;51.50;97305.22;5018948;28;20042;-65
2023/09/12 08:30:54;;;;;;;12.65;9.05;;;23.60;66.70;;;24.83;51.98;97310.94;5036897;28;20048;-65
2023/09/12 08:33:22;;;;;;;9.30;8.27;;;23.60;66.90;;;24.85;51.72;97306.06;5019922;28;20056;-65
2023/09/12 08:35:53;;;;;;;15.75;10.02;;;23.60;66.60;;;24.87;52.05;97301.19;5016793;28;20053;-65
2023/09/12 08:38:20;;;;;;;13.40;11.07;;;23.60;66.80;;;24.90;51.74;97300.66;5018253;28;20052;-65
2023/09/12 08:40:52;;;;;;;14.57;9.60;;;23.70;66.90;;;24.93;51.62;97302.03;5032259;28;20416;-65
2023/09/12 08:43:20;;;;;;;12.43;9.75;;;23.80;66.50;;;24.96;51.36;97299.59;5019790;28;20072;-65
2023/09/12 08:45:49;;;;;;;12.30;9.20;;;23.80;66.10;;;25.02;51.06;97302.38;5017822;28;20038;-65
2023/09/12 08:48:18;;;;;;;11.10;9.40;;;23.80;65.60;;;25.05;50.13;97294.50;5017824;28;20413;-65
2023/09/12 08:50:51;;;;;;;;;;;23.90;64.20;;;25.10;50.56;97299.16;5016828;28;20497;-65
2023/09/12 08:53:22;;;;;;;11.98;7.15;;;23.90;62.10;;;25.18;49.52;97298.63;5016125;28;19925;-65
2023/09/12 08:55:52;;;;;;;11.73;7.63;;;23.90;63.10;;;25.22;49.54;97301.66;5028573;28;20381;-65
2023/09/12 08:58:21;;;;;;;9.65;8.68;;;24.00;63.00;;;25.25;49.30;97298.47;5020140;28;20593;-65
2023/09/12 09:00:50;;;;;;;9.55;7.75;;;24.10;63.00;;;25.28;50.03;97311.53;5016558;28;20053;-65
2023/09/12 09:03:20;;;;;;;13.38;8.93;;;24.10;63.70;;;25.34;50.23;97305.84;5016092;28;20413;-65
2023/09/12 09:05:49;;;;;;;12.20;8.32;;;24.20;63.90;;;25.37;49.59;97301.78;5019495;28;20045;-65
2023/09/12 09:08:18;;;;;;;11.50;8.38;;;24.20;63.10;;;25.40;49.77;97295.81;5020015;28;20049;-65
2023/09/12 09:11:02;;;;;;;9.57;8.30;;;24.30;63.00;;;25.45;49.29;97305.91;5016514;28;20057;-65
2023/09/12 09:13:30;;;;;;;10.63;8.23;;;24.40;61.70;;;25.50;49.17;97304.03;5008773;28;20496;-65
2023/09/12 09:16:23;;;;;;;12.85;9.15;;;24.30;61.90;;;25.53;48.68;97306.22;5020788;28;20093;-65
2023/09/12 09:19:09;;;;;;;16.33;8.45;;;24.40;60.10;;;25.63;48.51;97310.91;5018726;28;20146;-65
2023/09/12 09:21:40;;;;;;;13.23;8.68;;;24.50;59.90;;;25.71;48.31;97304.13;5017869;28;20050;-65
2023/09/12 09:24:11;;;;;;;12.40;8.20;;;24.60;60.60;;;25.76;47.85;97295.94;5019243;28;20512;-65
2023/09/12 09:26:50;;;;;;;14.55;8.20;;;24.60;60.20;;;25.82;47.81;97288.59;5017348;28;20053;-65
2023/09/12 09:29:20;;;;;;;9.95;7.75;;;24.70;59.90;;;25.87;48.13;97285.91;5015557;28;20054;-65
2023/09/12 09:31:50;;;;;;;10.18;8.23;;;24.70;60.30;;;25.92;47.85;97285.94;5018677;28;20048;-65
2023/09/12 09:34:21;;;;;;;14.23;8.10;;;24.80;59.90;;;25.98;47.63;97284.03;5002434;28;20444;-65
2023/09/12 09:36:57;;;;;;;8.40;6.90;;;24.90;59.70;;;26.04;47.01;97285.69;5016455;28;20053;-65
2023/09/12 09:39:28;;;;;;;11.02;7.90;;;24.90;59.20;;;26.09;47.39;97275.63;5017398;28;20053;-64
2023/09/12 09:41:57;;;;;;;9.15;7.18;;;25.00;59.40;;;26.17;47.16;97285.16;5019914;28;20041;-65
2023/09/12 09:44:26;;;;;;;11.63;8.55;;;25.00;59.30;;;26.22;47.21;97279.72;5019346;28;20573;-64
2023/09/12 09:47:00;;;;;;;11.02;8.10;;;25.10;59.00;;;26.28;46.74;97275.88;5012700;28;20041;-65
2023/09/12 09:49:31;;;;;;;14.88;8.57;;;25.20;58.80;;;26.34;46.93;97282.19;5018641;28;20054;-65
2023/09/12 09:51:58;;;;;;;10.82;8.98;;;25.30;58.70;;;26.40;46.79;97283.81;5016038;28;20440;-65
2023/09/12 09:54:26;;;;;;;9.00;6.80;;;25.30;58.20;;;26.45;45.94;97277.56;5016766;28;20042;-65
2023/09/12 09:56:57;;;;;;;9.32;7.55;;;25.30;57.50;;;26.50;46.01;97269.34;5020215;28;20436;-65
2023/09/12 09:59:27;;;;;;;9.68;8.10;;;25.40;56.90;;;26.55;45.92;97266.63;5019348;28;20049;-65
2023/09/12 10:01:58;;;;;;;10.18;7.38;;;25.50;57.20;;;26.60;45.62;97272.13;5019316;28;20042;-65
2023/09/12 10:04:28;;;;;;;11.48;7.03;;;25.50;56.80;;;26.66;45.62;97264.75;5018756;28;20050;-65
2023/09/12 10:06:58;;;;;;;10.52;7.35;;;25.50;56.40;;;26.71;45.69;97267.47;5018963;28;20041;-65
2023/09/12 10:09:28;;;;;;;11.43;7.35;;;25.60;56.40;;;26.77;45.59;97273.75;5019046;28;20428;-65
2023/09/12 10:11:57;;;;;;;10.30;7.65;;;25.70;56.20;;;26.81;45.38;97267.47;5018696;28;20038;-65
2023/09/12 10:14:28;;;;;;;13.77;8.05;;;25.70;56.10;;;26.86;44.80;97261.97;5026243;28;20440;-65
2023/09/12 10:17:02;;;;;;;11.00;7.50;;;25.80;55.50;;;26.92;44.52;97271.78;5016684;28;20041;-65
2023/09/12 10:19:54;;;;;;;9.30;8.10;;;25.90;54.30;;;26.99;44.68;97267.97;5016025;28;20520;-65